Climatologie pour Saint-Brevin les Pins
Jour • Résumé pour novembre 11, 2017 Système :  Anglais    Métrique   Mixte
« - 1 jour
+ 1 jour »
Jour Semaine Mois Année Personnalisé
  Maximum : Minimum : Moyenne :
Température sous abri : 59.0 °F 51.4 °F 56 °F
Point de rosée : 55.9 °F 49.3 °F 53.4 °F
Humidité : 94% 88% 91%
Vitesse du vent : 25.0mph 0.0mph 7.7mph
Rafale : 29.0mph - -
Direction - - WNW
Pression : 30.33 in 30.09 in -
Précipitations : 0.00 in    
Historical Graphs
 
 
Tableau de données pour novembre 11, 2017
Heure Tempé Pt rosée Pression Vent Vitesse Rafale Humidité Taux pluie (/hr) Soleil
00:00 52.3 °F 49.8 °F 30.33 in NW 3.0 mph 12.0 mph 91% 0.00 in 0 W/m2
00:10 52.3 °F 49.8 °F 30.33 in West 4.0 mph 9.0 mph 91% 0.00 in 0 W/m2
00:15 52.3 °F 49.8 °F 30.33 in WNW 1.0 mph 10.0 mph 91% 0.00 in 0 W/m2
00:20 52.3 °F 49.8 °F 30.33 in WNW 3.0 mph 10.0 mph 91% 0.00 in 0 W/m2
00:25 52.5 °F 50.0 °F 30.33 in WNW 1.0 mph 11.0 mph 91% 0.00 in 0 W/m2
00:30 52.3 °F 49.8 °F 30.33 in NW 4.0 mph 11.0 mph 91% 0.00 in 0 W/m2
00:35 52.3 °F 49.5 °F 30.33 in NW 3.0 mph 9.0 mph 90% 0.00 in 0 W/m2
00:40 52.3 °F 49.8 °F 30.32 in West 3.0 mph 9.0 mph 91% 0.00 in 0 W/m2
00:45 52.3 °F 49.8 °F 30.32 in NW 6.0 mph 8.0 mph 91% 0.00 in 0 W/m2
00:50 52.3 °F 49.8 °F 30.32 in West 7.0 mph 8.0 mph 91% 0.00 in 0 W/m2
00:55 52.3 °F 49.8 °F 30.33 in WNW 5.0 mph 8.0 mph 91% 0.00 in 0 W/m2
01:00 52.3 °F 49.6 °F 30.33 in WNW 2.0 mph 8.0 mph 90% 0.00 in 0 W/m2
01:05 52.3 °F 49.8 °F 30.33 in WNW 1.0 mph 8.0 mph 91% 0.00 in 0 W/m2
01:10 52.3 °F 49.8 °F 30.32 in WNW 6.0 mph 8.0 mph 91% 0.00 in 0 W/m2
01:15 52.3 °F 49.8 °F 30.32 in West 2.0 mph 6.0 mph 91% 0.00 in 0 W/m2
01:20 52.2 °F 49.6 °F 30.32 in West 1.0 mph 6.0 mph 91% 0.00 in 0 W/m2
01:25 52.0 °F 49.3 °F 30.31 in Calm   5.0 mph 91% 0.00 in 0 W/m2
01:30 51.8 °F 49.5 °F 30.31 in WNW 3.0 mph 5.0 mph 92% 0.00 in 0 W/m2
01:35 51.6 °F 49.5 °F 30.31 in WNW 2.0 mph 5.0 mph 92% 0.00 in 0 W/m2
01:40 51.4 °F 49.3 °F 30.31 in West 3.0 mph 5.0 mph 92% 0.00 in 0 W/m2
01:45 51.4 °F 49.5 °F 30.31 in WNW 1.0 mph 5.0 mph 93% 0.00 in 0 W/m2
01:55 51.8 °F 49.8 °F 30.30 in West 3.0 mph 4.0 mph 93% 0.00 in 0 W/m2
02:00 52.2 °F 50.5 °F 30.30 in WSW 4.0 mph 8.0 mph 94% 0.00 in 0 W/m2
02:05 52.5 °F 50.5 °F 30.30 in NW 2.0 mph 8.0 mph 93% 0.00 in 0 W/m2
02:10 52.5 °F 50.7 °F 30.30 in West 3.0 mph 5.0 mph 93% 0.00 in 0 W/m2
02:15 53.1 °F 51.1 °F 30.30 in NW 6.0 mph 7.0 mph 93% 0.00 in 0 W/m2
02:20 53.4 °F 51.4 °F 30.29 in NW 5.0 mph 8.0 mph 93% 0.00 in 0 W/m2
02:25 53.8 °F 51.8 °F 30.29 in NW 2.0 mph 8.0 mph 93% 0.00 in 0 W/m2
02:30 54.1 °F 52.2 °F 30.28 in NW 8.0 mph 8.0 mph 93% 0.00 in 0 W/m2
02:35 54.1 °F 52.0 °F 30.28 in WSW 6.0 mph 8.0 mph 92% 0.00 in 0 W/m2
02:40 54.3 °F 52.2 °F 30.27 in NW 6.0 mph 8.0 mph 92% 0.00 in 0 W/m2
02:45 54.7 °F 52.3 °F 30.27 in West 6.0 mph 8.0 mph 92% 0.00 in 0 W/m2
02:50 54.9 °F 52.5 °F 30.27 in WNW 8.0 mph 11.0 mph 92% 0.00 in 0 W/m2
02:55 55.0 °F 52.7 °F 30.27 in WNW 8.0 mph 11.0 mph 92% 0.00 in 0 W/m2
03:00 55.0 °F 52.9 °F 30.27 in West 5.0 mph 11.0 mph 92% 0.00 in 0 W/m2
03:05 55.2 °F 53.1 °F 30.27 in West 5.0 mph 12.0 mph 92% 0.00 in 0 W/m2
03:10 55.4 °F 53.1 °F 30.27 in West 9.0 mph 12.0 mph 92% 0.00 in 0 W/m2
03:15 55.6 °F 53.2 °F 30.27 in West 8.0 mph 12.0 mph 92% 0.00 in 0 W/m2
03:20 55.6 °F 53.2 °F 30.27 in WNW 7.0 mph 12.0 mph 92% 0.00 in 0 W/m2
03:25 55.6 °F 53.2 °F 30.26 in West 4.0 mph 13.0 mph 92% 0.00 in 0 W/m2
03:30 55.6 °F 53.2 °F 30.26 in West 8.0 mph 14.0 mph 92% 0.00 in 0 W/m2
03:35 55.6 °F 53.2 °F 30.26 in WNW 8.0 mph 15.0 mph 92% 0.00 in 0 W/m2
03:40 55.4 °F 53.4 °F 30.26 in WSW 6.0 mph 15.0 mph 93% 0.00 in 0 W/m2
03:45 55.2 °F 53.2 °F 30.26 in WNW 4.0 mph 12.0 mph 93% 0.00 in 0 W/m2
03:50 55.4 °F 53.4 °F 30.25 in West 9.0 mph 15.0 mph 93% 0.00 in 0 W/m2
03:55 55.4 °F 53.4 °F 30.25 in WNW 5.0 mph 15.0 mph 93% 0.00 in 0 W/m2
04:00 55.6 °F 53.4 °F 30.25 in NW 8.0 mph 15.0 mph 93% 0.00 in 0 W/m2
04:05 55.6 °F 53.2 °F 30.25 in WNW 5.0 mph 17.0 mph 92% 0.00 in 0 W/m2
04:10 55.6 °F 53.2 °F 30.25 in SW 7.0 mph 17.0 mph 92% 0.00 in 0 W/m2
04:20 55.4 °F 53.1 °F 30.25 in WNW 7.0 mph 18.0 mph 92% 0.00 in 0 W/m2
04:25 55.6 °F 52.9 °F 30.24 in NW 5.0 mph 18.0 mph 91% 0.00 in 0 W/m2
04:30 55.6 °F 52.9 °F 30.24 in WNW 4.0 mph 13.0 mph 91% 0.00 in 0 W/m2
04:40 55.4 °F 52.9 °F 30.24 in WNW 2.0 mph 16.0 mph 91% 0.00 in 0 W/m2
04:45 55.6 °F 52.9 °F 30.24 in WNW 6.0 mph 15.0 mph 91% 0.00 in 0 W/m2
04:50 55.6 °F 52.7 °F 30.24 in WNW 5.0 mph 17.0 mph 90% 0.00 in 0 W/m2
04:55 55.6 °F 52.7 °F 30.24 in West 7.0 mph 19.0 mph 90% 0.00 in 0 W/m2
05:00 55.6 °F 52.7 °F 30.24 in West 6.0 mph 19.0 mph 90% 0.00 in 0 W/m2
05:05 55.4 °F 52.5 °F 30.24 in NW 4.0 mph 14.0 mph 90% 0.00 in 0 W/m2
05:10 55.4 °F 52.9 °F 30.23 in NW 7.0 mph 14.0 mph 91% 0.00 in 0 W/m2
05:15 55.4 °F 53.1 °F 30.23 in WNW 5.0 mph 14.0 mph 92% 0.00 in 0 W/m2
05:20 55.4 °F 53.1 °F 30.23 in NW 8.0 mph 16.0 mph 92% 0.00 in 0 W/m2
05:25 55.6 °F 53.2 °F 30.23 in WNW 8.0 mph 16.0 mph 92% 0.00 in 0 W/m2
05:30 55.2 °F 52.7 °F 30.23 in NW 14.0 mph 21.0 mph 91% 0.00 in 0 W/m2
05:35 54.9 °F 52.3 °F 30.23 in NW 7.0 mph 21.0 mph 91% 0.00 in 0 W/m2
05:45 54.7 °F 52.3 °F 30.23 in NW 9.0 mph 12.0 mph 92% 0.00 in 0 W/m2
05:50 54.7 °F 52.3 °F 30.22 in West 9.0 mph 12.0 mph 92% 0.00 in 0 W/m2
05:55 54.9 °F 52.7 °F 30.22 in WNW 3.0 mph 13.0 mph 92% 0.00 in 0 W/m2
06:00 55.0 °F 52.9 °F 30.22 in WNW 7.0 mph 15.0 mph 92% 0.00 in 0 W/m2
06:05 55.0 °F 52.7 °F 30.23 in NW 7.0 mph 16.0 mph 92% 0.00 in 0 W/m2
06:10 54.3 °F 52.3 °F 30.22 in West 8.0 mph 16.0 mph 93% 0.00 in 0 W/m2
06:15 54.1 °F 52.2 °F 30.22 in WNW 3.0 mph 14.0 mph 93% 0.00 in 0 W/m2
06:20 54.1 °F 52.2 °F 30.22 in West 2.0 mph 16.0 mph 93% 0.00 in 0 W/m2
06:25 54.3 °F 52.3 °F 30.22 in WNW 4.0 mph 16.0 mph 93% 0.00 in 0 W/m2
06:30 54.3 °F 52.3 °F 30.22 in NW 2.0 mph 12.0 mph 93% 0.00 in 0 W/m2
06:35 54.5 °F 52.5 °F 30.21 in West 4.0 mph 11.0 mph 93% 0.00 in 0 W/m2
06:40 54.7 °F 52.3 °F 30.21 in West 9.0 mph 11.0 mph 92% 0.00 in 0 W/m2
06:45 54.9 °F 52.2 °F 30.20 in WSW 9.0 mph 14.0 mph 91% 0.00 in 0 W/m2
06:50 55.2 °F 52.3 °F 30.21 in West 11.0 mph 14.0 mph 90% 0.00 in 0 W/m2
06:55 55.4 °F 52.2 °F 30.20 in WNW 2.0 mph 17.0 mph 89% 0.00 in 0 W/m2
07:00 55.6 °F 52.3 °F 30.20 in WNW 8.0 mph 17.0 mph 89% 0.00 in 0 W/m2
07:10 55.6 °F 52.9 °F 30.20 in WNW 12.0 mph 15.0 mph 91% 0.00 in 0 W/m2
07:15 55.6 °F 52.9 °F 30.20 in NW 10.0 mph 19.0 mph 91% 0.00 in 0 W/m2
07:20 55.4 °F 52.9 °F 30.20 in WNW 8.0 mph 19.0 mph 91% 0.00 in 0 W/m2
07:25 55.4 °F 52.9 °F 30.20 in West 6.0 mph 16.0 mph 91% 0.00 in 0 W/m2
07:30 55.2 °F 52.7 °F 30.19 in NW 5.0 mph 13.0 mph 91% 0.00 in 0 W/m2
07:35 55.4 °F 52.9 °F 30.19 in West 6.0 mph 12.0 mph 91% 0.00 in 0 W/m2
07:40 55.4 °F 52.9 °F 30.19 in WNW 7.0 mph 12.0 mph 91% 0.00 in 0 W/m2
07:45 55.6 °F 52.7 °F 30.19 in WNW 10.0 mph 18.0 mph 90% 0.00 in 0 W/m2
07:50 55.8 °F 52.9 °F 30.19 in WNW 8.0 mph 19.0 mph 90% 0.00 in 0 W/m2
08:00 55.9 °F 53.1 °F 30.19 in West 13.0 mph 19.0 mph 90% 0.00 in 0 W/m2
08:05 56.1 °F 53.2 °F 30.19 in NW 9.0 mph 19.0 mph 90% 0.00 in 0 W/m2
08:10 56.1 °F 53.6 °F 30.19 in WNW 8.0 mph 20.0 mph 91% 0.00 in 0 W/m2
08:20 55.8 °F 53.6 °F 30.19 in NW 7.0 mph 19.0 mph 92% 0.00 in 0 W/m2
08:25 55.6 °F 53.2 °F 30.18 in West 8.0 mph 20.0 mph 92% 0.00 in 11 W/m2
08:30 55.6 °F 53.2 °F 30.18 in WNW 9.0 mph 20.0 mph 92% 0.00 in 18 W/m2
08:35 55.6 °F 53.2 °F 30.18 in West 6.0 mph 18.0 mph 92% 0.00 in 19 W/m2
08:40 55.6 °F 53.2 °F 30.18 in WNW 13.0 mph 13.0 mph 92% 0.00 in 16 W/m2
08:45 55.6 °F 53.1 °F 30.18 in WNW 7.0 mph 13.0 mph 91% 0.00 in 16 W/m2
08:50 55.6 °F 53.1 °F 30.19 in WNW 6.0 mph 14.0 mph 91% 0.00 in 21 W/m2
08:55 55.8 °F 52.9 °F 30.19 in West 4.0 mph 14.0 mph 90% 0.00 in 21 W/m2
09:00 55.8 °F 52.9 °F 30.19 in WNW 7.0 mph 16.0 mph 90% 0.00 in 18 W/m2
09:05 55.9 °F 52.9 °F 30.18 in NW 5.0 mph 16.0 mph 89% 0.00 in 16 W/m2
09:10 56.1 °F 52.9 °F 30.18 in WNW 6.0 mph 14.0 mph 89% 0.00 in 23 W/m2
09:15 56.1 °F 53.2 °F 30.18 in WNW 6.0 mph 15.0 mph 90% 0.00 in 14 W/m2
09:20 56.1 °F 53.2 °F 30.18 in West 8.0 mph 15.0 mph 90% 0.00 in 14 W/m2
09:25 55.9 °F 53.4 °F 30.18 in WNW 11.0 mph 15.0 mph 91% 0.00 in 14 W/m2
09:30 55.8 °F 53.4 °F 30.18 in West 5.0 mph 20.0 mph 92% 0.00 in 28 W/m2
09:35 55.6 °F 53.6 °F 30.18 in WNW 5.0 mph 20.0 mph 93% 0.00 in 84 W/m2
09:40 55.8 °F 53.8 °F 30.18 in NW 4.0 mph 14.0 mph 93% 0.00 in 56 W/m2
09:45 55.9 °F 54.0 °F 30.18 in West 12.0 mph 20.0 mph 93% 0.00 in 32 W/m2
09:50 55.9 °F 54.0 °F 30.17 in NW 10.0 mph 20.0 mph 93% 0.00 in 65 W/m2
09:55 55.9 °F 54.0 °F 30.17 in NW 7.0 mph 20.0 mph 93% 0.00 in 58 W/m2
10:00 56.1 °F 54.1 °F 30.18 in SW 7.0 mph 17.0 mph 93% 0.00 in 70 W/m2
10:05 56.1 °F 54.1 °F 30.17 in West 7.0 mph 16.0 mph 93% 0.00 in 53 W/m2
10:10 56.5 °F 54.3 °F 30.17 in West 15.0 mph 15.0 mph 93% 0.00 in 53 W/m2
10:15 56.5 °F 54.1 °F 30.17 in West 9.0 mph 16.0 mph 92% 0.00 in 19 W/m2
10:20 56.5 °F 54.1 °F 30.17 in WNW 7.0 mph 16.0 mph 92% 0.00 in 23 W/m2
10:25 56.5 °F 54.1 °F 30.17 in West 10.0 mph 16.0 mph 92% 0.00 in 30 W/m2
10:30 56.5 °F 54.1 °F 30.17 in WNW 8.0 mph 18.0 mph 92% 0.00 in 30 W/m2
10:35 56.5 °F 54.1 °F 30.17 in NW 10.0 mph 18.0 mph 92% 0.00 in 44 W/m2
10:40 56.7 °F 54.7 °F 30.17 in West 17.0 mph 20.0 mph 93% 0.00 in 28 W/m2
10:45 56.7 °F 54.7 °F 30.17 in NW 7.0 mph 20.0 mph 93% 0.00 in 42 W/m2
10:50 56.7 °F 54.7 °F 30.17 in West 15.0 mph 19.0 mph 93% 0.00 in 49 W/m2
10:55 56.7 °F 54.7 °F 30.16 in West 14.0 mph 21.0 mph 93% 0.00 in 67 W/m2
11:00 56.8 °F 54.9 °F 30.16 in WNW 8.0 mph 21.0 mph 93% 0.00 in 63 W/m2
11:05 56.8 °F 54.9 °F 30.16 in WNW 13.0 mph 19.0 mph 93% 0.00 in 69 W/m2
11:10 56.8 °F 54.9 °F 30.16 in NW 5.0 mph 19.0 mph 93% 0.00 in 88 W/m2
11:15 56.8 °F 54.9 °F 30.16 in West 5.0 mph 20.0 mph 93% 0.00 in 113 W/m2
11:20 57.0 °F 55.0 °F 30.16 in WNW 8.0 mph 20.0 mph 93% 0.00 in 74 W/m2
11:25 57.0 °F 55.0 °F 30.16 in NW 4.0 mph 17.0 mph 93% 0.00 in 40 W/m2
11:30 57.0 °F 55.0 °F 30.16 in WNW 13.0 mph 20.0 mph 93% 0.00 in 53 W/m2
11:35 57.2 °F 55.2 °F 30.16 in West 12.0 mph 20.0 mph 93% 0.00 in 74 W/m2
11:40 57.4 °F 55.2 °F 30.16 in WSW 8.0 mph 20.0 mph 93% 0.00 in 84 W/m2
11:45 57.4 °F 55.4 °F 30.15 in West 6.0 mph 20.0 mph 93% 0.00 in 56 W/m2
11:50 57.4 °F 55.4 °F 30.15 in NW 13.0 mph 16.0 mph 93% 0.00 in 70 W/m2
11:55 57.6 °F 55.6 °F 30.15 in NW 10.0 mph 17.0 mph 93% 0.00 in 54 W/m2
12:00 57.6 °F 55.2 °F 30.15 in WNW 11.0 mph 22.0 mph 92% 0.00 in 56 W/m2
12:05 57.6 °F 55.2 °F 30.15 in WNW 7.0 mph 22.0 mph 92% 0.00 in 123 W/m2
12:10 57.7 °F 55.4 °F 30.15 in West 11.0 mph 21.0 mph 92% 0.00 in 72 W/m2
12:15 57.7 °F 55.6 °F 30.14 in NW 8.0 mph 20.0 mph 92% 0.00 in 123 W/m2
12:25 58.3 °F 55.9 °F 30.14 in WNW 13.0 mph 22.0 mph 92% 0.00 in 153 W/m2
12:30 58.3 °F 55.9 °F 30.14 in WNW 10.0 mph 25.0 mph 92% 0.00 in 134 W/m2
12:35 58.1 °F 55.4 °F 30.14 in WNW 5.0 mph 25.0 mph 91% 0.00 in 148 W/m2
12:40 58.1 °F 55.4 °F 30.14 in WNW 7.0 mph 21.0 mph 91% 0.00 in 137 W/m2
12:45 58.3 °F 55.2 °F 30.14 in WNW 14.0 mph 20.0 mph 90% 0.00 in 146 W/m2
12:50 58.3 °F 55.4 °F 30.13 in WNW 12.0 mph 20.0 mph 90% 0.00 in 128 W/m2
12:55 58.3 °F 55.4 °F 30.13 in WNW 8.0 mph 28.0 mph 90% 0.00 in 121 W/m2
13:00 58.5 °F 55.6 °F 30.13 in NW 16.0 mph 28.0 mph 90% 0.00 in 271 W/m2
13:05 58.8 °F 55.6 °F 30.13 in NW 15.0 mph 24.0 mph 89% 0.00 in 183 W/m2
13:10 59.0 °F 55.8 °F 30.13 in WNW 9.0 mph 24.0 mph 89% 0.00 in 209 W/m2
13:15 59.0 °F 55.4 °F 30.13 in WNW 11.0 mph 29.0 mph 88% 0.00 in 155 W/m2
13:20 58.8 °F 55.6 °F 30.12 in West 8.0 mph 29.0 mph 89% 0.00 in 102 W/m2
13:25 58.6 °F 55.4 °F 30.12 in West 8.0 mph 23.0 mph 89% 0.00 in 116 W/m2
13:30 58.6 °F 55.4 °F 30.12 in WNW 14.0 mph 22.0 mph 89% 0.00 in 135 W/m2
13:35 58.6 °F 55.4 °F 30.12 in WNW 8.0 mph 22.0 mph 89% 0.00 in 116 W/m2
13:40 58.6 °F 55.4 °F 30.12 in NW 9.0 mph 25.0 mph 89% 0.00 in 102 W/m2
13:45 58.5 °F 55.4 °F 30.12 in West 11.0 mph 25.0 mph 90% 0.00 in 84 W/m2
13:50 58.3 °F 55.2 °F 30.12 in WNW 7.0 mph 19.0 mph 90% 0.00 in 91 W/m2
13:55 58.3 °F 55.2 °F 30.11 in West 14.0 mph 25.0 mph 90% 0.00 in 105 W/m2
14:00 58.1 °F 55.4 °F 30.11 in WNW 9.0 mph 25.0 mph 91% 0.00 in 125 W/m2
14:05 58.3 °F 55.2 °F 30.11 in West 4.0 mph 25.0 mph 90% 0.00 in 123 W/m2
14:10 58.1 °F 55.2 °F 30.11 in WNW 16.0 mph 27.0 mph 90% 0.00 in 72 W/m2
14:15 57.9 °F 55.0 °F 30.11 in WNW 8.0 mph 27.0 mph 90% 0.00 in 97 W/m2
14:20 57.9 °F 55.0 °F 30.11 in NW 13.0 mph 24.0 mph 90% 0.00 in 97 W/m2
14:25 57.9 °F 55.0 °F 30.10 in NW 16.0 mph 24.0 mph 90% 0.00 in 114 W/m2
14:30 57.9 °F 55.0 °F 30.11 in WNW 7.0 mph 27.0 mph 90% 0.00 in 90 W/m2
14:35 57.9 °F 55.0 °F 30.10 in West 12.0 mph 27.0 mph 90% 0.00 in 83 W/m2
14:40 57.7 °F 54.9 °F 30.10 in NW 7.0 mph 25.0 mph 90% 0.00 in 74 W/m2
14:45 57.7 °F 54.9 °F 30.10 in WNW 11.0 mph 25.0 mph 90% 0.00 in 88 W/m2
14:50 57.9 °F 55.0 °F 30.10 in NNW 9.0 mph 25.0 mph 90% 0.00 in 118 W/m2
14:55 57.9 °F 55.0 °F 30.10 in West 9.0 mph 20.0 mph 90% 0.00 in 72 W/m2
15:00 57.7 °F 54.9 °F 30.10 in NW 8.0 mph 25.0 mph 90% 0.00 in 81 W/m2
15:05 57.7 °F 54.9 °F 30.10 in WNW 11.0 mph 25.0 mph 90% 0.00 in 58 W/m2
15:10 57.7 °F 54.9 °F 30.10 in WNW 13.0 mph 23.0 mph 90% 0.00 in 60 W/m2
15:15 57.7 °F 54.9 °F 30.09 in WNW 13.0 mph 24.0 mph 90% 0.00 in 83 W/m2
15:20 57.7 °F 54.9 °F 30.10 in NW 7.0 mph 24.0 mph 90% 0.00 in 116 W/m2
15:25 57.9 °F 55.0 °F 30.09 in WSW 8.0 mph 21.0 mph 90% 0.00 in 139 W/m2
15:30 58.1 °F 55.2 °F 30.09 in SW 4.0 mph 21.0 mph 90% 0.00 in 142 W/m2
15:35 58.1 °F 55.2 °F 30.09 in West 10.0 mph 21.0 mph 90% 0.00 in 77 W/m2
15:40 57.9 °F 55.0 °F 30.09 in NNW 6.0 mph 24.0 mph 90% 0.00 in 53 W/m2
15:45 57.7 °F 54.9 °F 30.10 in NW 11.0 mph 24.0 mph 90% 0.00 in 33 W/m2
15:50 57.6 °F 54.5 °F 30.09 in WNW 6.0 mph 21.0 mph 90% 0.00 in 30 W/m2
15:55 57.4 °F 54.5 °F 30.09 in WNW 10.0 mph 21.0 mph 90% 0.00 in 28 W/m2
16:00 57.4 °F 54.7 °F 30.09 in NW 11.0 mph 23.0 mph 91% 0.00 in 46 W/m2
16:05 57.4 °F 54.3 °F 30.09 in WNW 20.0 mph 26.0 mph 90% 0.00 in 46 W/m2
16:10 57.4 °F 54.3 °F 30.09 in West 13.0 mph 27.0 mph 90% 0.00 in 54 W/m2
16:15 57.4 °F 54.5 °F 30.09 in WNW 6.0 mph 27.0 mph 90% 0.00 in 46 W/m2
16:20 57.4 °F 54.5 °F 30.09 in WNW 8.0 mph 22.0 mph 90% 0.00 in 35 W/m2
16:25 57.2 °F 54.3 °F 30.09 in WNW 16.0 mph 22.0 mph 90% 0.00 in 35 W/m2
16:30 57.0 °F 54.1 °F 30.09 in WNW 9.0 mph 18.0 mph 90% 0.00 in 39 W/m2
16:35 56.8 °F 54.3 °F 30.09 in NNW 13.0 mph 20.0 mph 91% 0.00 in 23 W/m2
16:40 56.8 °F 54.1 °F 30.10 in NW 17.0 mph 21.0 mph 91% 0.00 in 26 W/m2
16:45 56.8 °F 54.1 °F 30.09 in West 10.0 mph 23.0 mph 91% 0.00 in 25 W/m2
16:50 56.8 °F 54.1 °F 30.09 in WNW 9.0 mph 23.0 mph 91% 0.00 in 25 W/m2
17:00 56.8 °F 54.1 °F 30.09 in NW 7.0 mph 24.0 mph 91% 0.00 in 14 W/m2
17:05 56.8 °F 54.1 °F 30.10 in WNW 5.0 mph 24.0 mph 91% 0.00 in 11 W/m2
17:10 56.8 °F 54.1 °F 30.09 in NNW 8.0 mph 18.0 mph 91% 0.00 in 7 W/m2
17:15 56.8 °F 54.1 °F 30.10 in WNW 10.0 mph 15.0 mph 91% 0.00 in 9 W/m2
17:20 56.7 °F 54.0 °F 30.10 in NW 11.0 mph 17.0 mph 91% 0.00 in 7 W/m2
17:25 56.5 °F 54.0 °F 30.10 in WNW 14.0 mph 19.0 mph 91% 0.00 in 5 W/m2
17:30 56.5 °F 53.6 °F 30.10 in WNW 6.0 mph 20.0 mph 90% 0.00 in 5 W/m2
17:35 56.5 °F 53.6 °F 30.10 in NNW 10.0 mph 21.0 mph 90% 0.00 in 0 W/m2
17:40 56.7 °F 53.4 °F 30.10 in WNW 8.0 mph 21.0 mph 89% 0.00 in 0 W/m2
17:50 56.5 °F 53.2 °F 30.10 in WNW 9.0 mph 20.0 mph 89% 0.00 in 0 W/m2
17:55 56.7 °F 53.4 °F 30.10 in WNW 13.0 mph 20.0 mph 89% 0.00 in 0 W/m2
18:00 56.7 °F 53.4 °F 30.10 in WNW 11.0 mph 20.0 mph 89% 0.00 in 0 W/m2
18:05 56.5 °F 53.2 °F 30.10 in WNW 5.0 mph 24.0 mph 89% 0.00 in 0 W/m2
18:10 56.5 °F 53.2 °F 30.10 in West 14.0 mph 24.0 mph 89% 0.00 in 0 W/m2
18:15 56.7 °F 53.4 °F 30.10 in WNW 9.0 mph 23.0 mph 89% 0.00 in 0 W/m2
18:20 56.5 °F 53.2 °F 30.10 in WNW 25.0 mph 27.0 mph 89% 0.00 in 0 W/m2
18:25 56.3 °F 53.1 °F 30.10 in WNW 9.0 mph 27.0 mph 89% 0.00 in 0 W/m2
18:30 56.3 °F 53.1 °F 30.10 in WNW 8.0 mph 26.0 mph 89% 0.00 in 0 W/m2
18:35 56.5 °F 53.2 °F 30.10 in NW 9.0 mph 22.0 mph 89% 0.00 in 0 W/m2
18:40 56.5 °F 53.4 °F 30.10 in NW 9.0 mph 20.0 mph 90% 0.00 in 0 W/m2
18:45 56.5 °F 53.4 °F 30.10 in WNW 10.0 mph 24.0 mph 90% 0.00 in 0 W/m2
18:50 56.5 °F 53.4 °F 30.11 in WNW 19.0 mph 24.0 mph 90% 0.00 in 0 W/m2
18:55 56.5 °F 53.2 °F 30.10 in WNW 7.0 mph 24.0 mph 89% 0.00 in 0 W/m2
19:00 56.5 °F 53.2 °F 30.11 in NW 10.0 mph 23.0 mph 89% 0.00 in 0 W/m2
19:05 56.7 °F 53.4 °F 30.11 in WNW 12.0 mph 19.0 mph 89% 0.00 in 0 W/m2
19:10 56.5 °F 53.2 °F 30.11 in WNW 7.0 mph 19.0 mph 89% 0.00 in 0 W/m2
19:15 56.5 °F 53.2 °F 30.11 in NW 9.0 mph 17.0 mph 89% 0.00 in 0 W/m2
19:20 56.5 °F 53.2 °F 30.11 in WNW 8.0 mph 21.0 mph 89% 0.00 in 0 W/m2
19:25 56.5 °F 53.2 °F 30.11 in WNW 6.0 mph 21.0 mph 89% 0.00 in 0 W/m2
19:35 56.1 °F 53.2 °F 30.11 in West 7.0 mph 22.0 mph 90% 0.00 in 0 W/m2
19:40 55.9 °F 53.1 °F 30.11 in WNW 11.0 mph 22.0 mph 90% 0.00 in 0 W/m2
19:45 55.9 °F 53.2 °F 30.11 in NW 4.0 mph 17.0 mph 91% 0.00 in 0 W/m2
19:50 55.9 °F 53.2 °F 30.11 in NNW 6.0 mph 15.0 mph 91% 0.00 in 0 W/m2
19:55 55.9 °F 53.2 °F 30.11 in WNW 9.0 mph 15.0 mph 91% 0.00 in 0 W/m2
20:00 55.9 °F 53.2 °F 30.11 in NW 9.0 mph 15.0 mph 91% 0.00 in 0 W/m2
20:10 55.9 °F 53.2 °F 30.10 in WNW 3.0 mph 18.0 mph 91% 0.00 in 0 W/m2
20:15 55.9 °F 53.1 °F 30.10 in West 6.0 mph 18.0 mph 90% 0.00 in 0 W/m2
20:20 56.1 °F 53.2 °F 30.10 in WNW 16.0 mph 20.0 mph 90% 0.00 in 0 W/m2
20:25 56.1 °F 53.1 °F 30.10 in West 7.0 mph 20.0 mph 89% 0.00 in 0 W/m2
20:30 56.1 °F 53.1 °F 30.10 in WNW 5.0 mph 21.0 mph 89% 0.00 in 0 W/m2
20:35 56.3 °F 53.1 °F 30.11 in WNW 8.0 mph 21.0 mph 89% 0.00 in 0 W/m2
20:40 56.1 °F 53.2 °F 30.11 in West 11.0 mph 16.0 mph 90% 0.00 in 0 W/m2
20:45 55.9 °F 53.4 °F 30.11 in NW 5.0 mph 15.0 mph 91% 0.00 in 0 W/m2
20:50 55.8 °F 53.2 °F 30.11 in NW 5.0 mph 18.0 mph 91% 0.00 in 0 W/m2
20:55 55.8 °F 53.1 °F 30.11 in NW 8.0 mph 18.0 mph 91% 0.00 in 0 W/m2
21:00 55.8 °F 53.2 °F 30.11 in NNW 7.0 mph 18.0 mph 91% 0.00 in 0 W/m2
21:05 55.8 °F 53.2 °F 30.11 in NW 8.0 mph 14.0 mph 91% 0.00 in 0 W/m2
21:10 55.8 °F 53.4 °F 30.11 in NW 7.0 mph 17.0 mph 92% 0.00 in 0 W/m2
21:15 55.8 °F 53.2 °F 30.11 in West 7.0 mph 17.0 mph 91% 0.00 in 0 W/m2
21:20 55.9 °F 53.2 °F 30.10 in NNW 3.0 mph 13.0 mph 91% 0.00 in 0 W/m2
21:25 55.9 °F 53.4 °F 30.10 in WNW 3.0 mph 12.0 mph 91% 0.00 in 0 W/m2
21:30 56.1 °F 53.4 °F 30.11 in West 8.0 mph 11.0 mph 91% 0.00 in 0 W/m2
21:35 56.1 °F 53.4 °F 30.10 in NW 6.0 mph 13.0 mph 91% 0.00 in 0 W/m2
21:40 55.9 °F 53.4 °F 30.10 in WNW 2.0 mph 13.0 mph 91% 0.00 in 0 W/m2
21:45 55.9 °F 53.2 °F 30.10 in West 5.0 mph 11.0 mph 91% 0.00 in 0 W/m2
21:50 55.9 °F 53.6 °F 30.10 in WNW 4.0 mph 10.0 mph 92% 0.00 in 0 W/m2
21:55 55.9 °F 53.8 °F 30.10 in NW 5.0 mph 11.0 mph 92% 0.00 in 0 W/m2
22:00 56.1 °F 53.8 °F 30.10 in WNW 5.0 mph 12.0 mph 92% 0.00 in 0 W/m2
22:05 56.1 °F 54.0 °F 30.10 in WNW 2.0 mph 12.0 mph 92% 0.00 in 0 W/m2
22:10 56.1 °F 54.0 °F 30.10 in West 4.0 mph 12.0 mph 92% 0.00 in 0 W/m2
22:20 56.1 °F 54.0 °F 30.10 in WNW 4.0 mph 12.0 mph 92% 0.00 in 0 W/m2
22:25 56.3 °F 54.0 °F 30.09 in West 7.0 mph 11.0 mph 92% 0.00 in 0 W/m2
22:30 56.1 °F 54.0 °F 30.09 in WNW 4.0 mph 13.0 mph 92% 0.00 in 0 W/m2
22:35 56.1 °F 54.0 °F 30.09 in WSW 7.0 mph 13.0 mph 92% 0.00 in 0 W/m2
22:40 56.3 °F 54.0 °F 30.09 in WNW 9.0 mph 16.0 mph 92% 0.00 in 0 W/m2
22:45 56.3 °F 54.0 °F 30.09 in WNW 3.0 mph 16.0 mph 92% 0.00 in 0 W/m2
22:50 56.3 °F 54.0 °F 30.10 in West 5.0 mph 16.0 mph 92% 0.00 in 0 W/m2
22:55 56.5 °F 54.1 °F 30.09 in NW 6.0 mph 16.0 mph 92% 0.00 in 0 W/m2
23:00 56.5 °F 54.1 °F 30.09 in WNW 10.0 mph 13.0 mph 92% 0.00 in 0 W/m2
23:05 56.5 °F 54.1 °F 30.09 in WNW 6.0 mph 13.0 mph 92% 0.00 in 0 W/m2
23:10 56.5 °F 54.1 °F 30.09 in WNW 8.0 mph 14.0 mph 92% 0.00 in 0 W/m2
23:15 56.5 °F 54.1 °F 30.09 in WNW 5.0 mph 15.0 mph 92% 0.00 in 0 W/m2
23:20 56.5 °F 54.1 °F 30.09 in West 7.0 mph 15.0 mph 92% 0.00 in 0 W/m2
23:25 56.5 °F 54.1 °F 30.09 in NW 9.0 mph 13.0 mph 92% 0.00 in 0 W/m2
23:30 56.5 °F 54.1 °F 30.09 in NW 9.0 mph 19.0 mph 92% 0.00 in 0 W/m2
23:35 56.5 °F 54.1 °F 30.09 in West 6.0 mph 19.0 mph 92% 0.00 in 0 W/m2
23:40 56.3 °F 54.0 °F 30.09 in NNW 16.0 mph 16.0 mph 92% 0.00 in 0 W/m2
23:45 56.1 °F 54.0 °F 30.09 in NW 9.0 mph 16.0 mph 92% 0.00 in 0 W/m2
23:50 56.1 °F 54.0 °F 30.09 in NW 5.0 mph 16.0 mph 92% 0.00 in 0 W/m2
23:55 56.1 °F 54.0 °F 30.09 in NW 7.0 mph 14.0 mph 92% 0.00 in 0 W/m2